createdAt,value
2017-04-27T00:00:12.537Z,19.40
2017-04-27T00:01:12.287Z,19.40
2017-04-27T00:02:11.848Z,19.40
2017-04-27T00:03:11.107Z,19.40
2017-04-27T00:04:11.885Z,19.40
2017-04-27T00:05:12.018Z,19.40
2017-04-27T00:06:11.745Z,19.40
2017-04-27T00:07:11.847Z,19.40
2017-04-27T00:08:12.526Z,19.40
2017-04-27T00:09:11.435Z,19.40
2017-04-27T00:10:11.627Z,19.40
2017-04-27T00:11:11.728Z,19.40
2017-04-27T00:12:11.982Z,19.40
2017-04-27T00:13:14.721Z,19.40
2017-04-27T00:14:11.896Z,19.40
2017-04-27T00:15:12.193Z,19.40
2017-04-27T00:16:11.856Z,19.40
2017-04-27T00:17:12.953Z,19.40
2017-04-27T00:18:12.045Z,19.40
2017-04-27T00:19:12.667Z,19.40
2017-04-27T00:20:12.385Z,19.40
2017-04-27T00:21:11.571Z,19.40
2017-04-27T00:22:12.477Z,19.40
2017-04-27T00:23:12.317Z,19.40
2017-04-27T00:24:12.277Z,19.40
2017-04-27T00:25:11.517Z,19.40
2017-04-27T00:26:12.307Z,19.40
2017-04-27T00:27:11.288Z,19.40
2017-04-27T00:28:11.432Z,19.30
2017-04-27T00:29:08.761Z,19.40
2017-04-27T00:30:11.710Z,19.40
2017-04-27T00:31:13.248Z,19.40
2017-04-27T00:32:11.304Z,19.30
2017-04-27T00:33:12.314Z,19.40
2017-04-27T00:34:11.298Z,19.30
2017-04-27T00:35:11.626Z,19.30
2017-04-27T00:36:11.710Z,19.40
2017-04-27T00:37:12.616Z,19.40
2017-04-27T00:38:11.668Z,19.40
2017-04-27T00:39:12.638Z,19.40
2017-04-27T00:40:12.321Z,19.40
2017-04-27T00:41:11.311Z,19.40
2017-04-27T00:42:11.846Z,19.40
2017-04-27T00:43:12.847Z,19.40
2017-04-27T00:44:12.422Z,19.30
2017-04-27T00:45:11.584Z,19.40
2017-04-27T00:46:12.535Z,19.40
2017-04-27T00:47:12.529Z,19.40
2017-04-27T00:48:11.428Z,19.30
2017-04-27T00:49:12.234Z,19.40
2017-04-27T00:50:13.162Z,19.30
2017-04-27T00:51:11.328Z,19.30
2017-04-27T00:52:09.931Z,19.40
2017-04-27T00:53:13.288Z,19.30
2017-04-27T00:54:11.291Z,19.30
2017-04-27T00:55:11.506Z,19.30
2017-04-27T00:56:13.797Z,19.40
2017-04-27T00:57:12.452Z,19.40
2017-04-27T00:58:12.613Z,19.40
2017-04-27T00:59:11.484Z,19.30
2017-04-27T01:00:12.098Z,19.30
2017-04-27T01:01:11.646Z,19.30
2017-04-27T01:02:11.963Z,19.30
2017-04-27T01:03:11.848Z,19.30
2017-04-27T01:04:12.857Z,19.30
2017-04-27T01:05:12.930Z,19.40
2017-04-27T01:06:09.746Z,19.40
2017-04-27T01:07:12.270Z,19.30
2017-04-27T01:08:11.250Z,19.30
2017-04-27T01:09:13.827Z,19.30
2017-04-27T01:10:13.562Z,19.30
2017-04-27T01:11:11.998Z,19.40
2017-04-27T01:12:11.259Z,19.30
2017-04-27T01:13:13.906Z,19.40
2017-04-27T01:14:13.497Z,19.40
2017-04-27T01:15:11.417Z,19.30
2017-04-27T01:16:12.272Z,19.30
2017-04-27T01:17:13.013Z,19.30
2017-04-27T01:18:12.206Z,19.30
2017-04-27T01:19:12.800Z,19.30
2017-04-27T01:20:12.460Z,19.30
2017-04-27T01:21:11.550Z,19.30
2017-04-27T01:22:11.535Z,19.30
2017-04-27T01:23:11.632Z,19.30
2017-04-27T01:24:12.843Z,19.30
2017-04-27T01:25:13.500Z,19.30
2017-04-27T01:26:12.313Z,19.30
2017-04-27T01:27:11.963Z,19.30
2017-04-27T01:28:11.206Z,19.30
2017-04-27T01:29:11.778Z,19.30
2017-04-27T01:30:14.265Z,19.30
2017-04-27T01:31:11.771Z,19.30
2017-04-27T01:32:12.868Z,19.30
2017-04-27T01:33:12.756Z,19.30
2017-04-27T01:34:12.370Z,19.30
2017-04-27T01:35:12.218Z,19.30
2017-04-27T01:36:14.621Z,19.30
2017-04-27T01:37:09.299Z,19.30
2017-04-27T01:38:13.326Z,19.30
2017-04-27T01:39:11.880Z,19.30
2017-04-27T01:40:12.821Z,19.30
2017-04-27T01:41:12.870Z,19.30
2017-04-27T01:42:09.992Z,19.30
2017-04-27T01:43:12.033Z,19.30
2017-04-27T01:44:11.087Z,19.30
2017-04-27T01:45:11.881Z,19.30
2017-04-27T01:46:12.850Z,19.30
2017-04-27T01:47:09.639Z,19.30
2017-04-27T01:48:12.587Z,19.30
2017-04-27T01:49:10.025Z,19.30
2017-04-27T01:50:12.335Z,19.30
2017-04-27T01:51:12.887Z,19.30
2017-04-27T01:52:13.481Z,19.30
2017-04-27T01:53:14.118Z,19.30
2017-04-27T01:54:11.956Z,19.30
2017-04-27T01:55:12.735Z,19.30
2017-04-27T01:56:10.528Z,19.30
2017-04-27T01:57:09.375Z,19.30
2017-04-27T01:58:11.924Z,19.30
2017-04-27T01:59:12.201Z,19.30
2017-04-27T02:00:11.374Z,19.30
2017-04-27T02:01:12.085Z,19.30
2017-04-27T02:02:11.118Z,19.30
2017-04-27T02:03:09.925Z,19.30
2017-04-27T02:04:10.206Z,19.30
2017-04-27T02:05:13.379Z,19.30
2017-04-27T02:06:12.118Z,19.30
2017-04-27T02:07:12.175Z,19.30
2017-04-27T02:08:11.969Z,19.30
2017-04-27T02:09:11.661Z,19.30
2017-04-27T02:10:12.520Z,19.30
2017-04-27T02:11:11.567Z,19.30
2017-04-27T02:12:10.103Z,19.30
2017-04-27T02:13:12.906Z,19.30
2017-04-27T02:14:11.839Z,19.30
2017-04-27T02:15:12.541Z,19.30
2017-04-27T02:16:12.505Z,19.30
2017-04-27T02:17:12.720Z,19.30
2017-04-27T02:18:11.775Z,19.30
2017-04-27T02:19:09.359Z,19.30
2017-04-27T02:20:11.794Z,19.30
2017-04-27T02:21:10.223Z,19.30
2017-04-27T02:22:11.978Z,19.30
2017-04-27T02:23:09.631Z,19.30
2017-04-27T02:24:14.091Z,19.30
2017-04-27T02:25:11.697Z,19.30
2017-04-27T02:26:12.145Z,19.30
2017-04-27T02:27:12.895Z,19.30
2017-04-27T02:28:12.328Z,19.30
2017-04-27T02:29:11.377Z,19.30
2017-04-27T02:30:11.477Z,19.30
2017-04-27T02:31:12.333Z,19.30
2017-04-27T02:32:11.431Z,19.30
2017-04-27T02:33:11.635Z,19.30
2017-04-27T02:34:12.816Z,19.30
2017-04-27T02:35:12.307Z,19.30
2017-04-27T02:36:12.950Z,19.30
2017-04-27T02:37:11.647Z,19.30
2017-04-27T02:38:12.112Z,19.30
2017-04-27T02:39:11.193Z,19.30
2017-04-27T02:40:11.429Z,19.30
2017-04-27T02:41:10.210Z,19.30
2017-04-27T02:42:11.999Z,19.30
2017-04-27T02:43:11.736Z,19.30
2017-04-27T02:44:11.911Z,19.30
2017-04-27T02:45:12.404Z,19.30
2017-04-27T02:46:12.974Z,19.30
2017-04-27T02:47:12.805Z,19.30
2017-04-27T02:48:11.774Z,19.30
2017-04-27T02:49:11.919Z,19.30
2017-04-27T02:50:12.186Z,19.30
2017-04-27T02:51:11.330Z,19.30
2017-04-27T02:52:12.363Z,19.30
2017-04-27T02:53:11.386Z,19.30
2017-04-27T02:54:12.010Z,19.30
2017-04-27T02:55:11.129Z,19.30
2017-04-27T02:56:11.037Z,19.30
2017-04-27T02:57:11.826Z,19.30
2017-04-27T02:58:12.520Z,19.30
2017-04-27T02:59:13.198Z,19.30
2017-04-27T03:00:11.858Z,19.30
2017-04-27T03:01:12.276Z,19.30
2017-04-27T03:02:11.196Z,19.30
2017-04-27T03:03:08.442Z,19.30
2017-04-27T03:04:13.132Z,19.30
2017-04-27T03:05:11.077Z,19.30
2017-04-27T03:06:09.576Z,19.30
2017-04-27T03:07:11.190Z,19.30
2017-04-27T03:08:11.862Z,19.30
2017-04-27T03:09:12.279Z,19.30
2017-04-27T03:10:11.656Z,19.30
2017-04-27T03:11:12.002Z,19.30
2017-04-27T03:12:11.231Z,19.30
2017-04-27T03:13:12.615Z,19.30
2017-04-27T03:14:11.554Z,19.30
2017-04-27T03:16:12.017Z,19.30
2017-04-27T03:16:14.922Z,19.30
2017-04-27T03:17:12.560Z,19.30
2017-04-27T03:18:11.551Z,19.30
2017-04-27T03:19:12.643Z,19.30
2017-04-27T03:20:13.772Z,19.30
2017-04-27T03:21:12.018Z,19.30
2017-04-27T03:22:11.206Z,19.30
2017-04-27T03:23:11.382Z,19.30
2017-04-27T03:24:13.075Z,19.30
2017-04-27T03:25:11.972Z,19.30
2017-04-27T03:26:11.154Z,19.30
2017-04-27T03:27:09.754Z,19.30
2017-04-27T03:28:09.779Z,19.30
2017-04-27T03:29:13.139Z,19.30
2017-04-27T03:30:11.310Z,19.30
2017-04-27T03:31:11.922Z,19.30
2017-04-27T03:32:12.016Z,19.30
2017-04-27T03:33:11.621Z,19.30
2017-04-27T03:34:12.343Z,19.30
2017-04-27T03:35:14.056Z,19.30
2017-04-27T03:36:11.372Z,19.30
2017-04-27T03:37:11.398Z,19.30
2017-04-27T03:38:12.440Z,19.30
2017-04-27T03:39:11.873Z,19.30
2017-04-27T03:40:11.892Z,19.30
2017-04-27T03:41:12.881Z,19.30
2017-04-27T03:42:12.215Z,19.30
2017-04-27T03:43:11.962Z,19.30
2017-04-27T03:44:11.326Z,19.30
2017-04-27T03:45:11.510Z,19.30
2017-04-27T03:46:11.714Z,19.30
2017-04-27T03:47:10.252Z,19.30
2017-04-27T03:48:12.339Z,19.30
2017-04-27T03:49:11.842Z,19.30
2017-04-27T03:50:11.047Z,19.30
2017-04-27T03:51:12.923Z,19.30
2017-04-27T03:52:11.737Z,19.30
2017-04-27T03:53:12.386Z,19.30
2017-04-27T03:54:14.903Z,19.30
2017-04-27T03:55:12.179Z,19.30
2017-04-27T03:56:11.227Z,19.30
2017-04-27T03:57:12.158Z,19.30
2017-04-27T03:58:11.770Z,19.30
2017-04-27T03:59:12.928Z,19.30
2017-04-27T04:00:12.957Z,19.30
2017-04-27T04:01:11.972Z,19.30
2017-04-27T04:02:11.869Z,19.30
2017-04-27T04:03:12.610Z,19.30
2017-04-27T04:04:11.679Z,19.30
2017-04-27T04:05:12.304Z,19.30
2017-04-27T04:06:11.901Z,19.30
2017-04-27T04:07:12.777Z,19.30
2017-04-27T04:08:11.848Z,19.30
2017-04-27T04:09:14.562Z,19.30
2017-04-27T04:10:13.761Z,19.30
2017-04-27T04:11:11.839Z,19.30
2017-04-27T04:12:11.990Z,19.30
2017-04-27T04:13:11.184Z,19.30
2017-04-27T04:14:12.984Z,19.30
2017-04-27T04:15:12.866Z,19.30
2017-04-27T04:16:12.052Z,19.30
2017-04-27T04:17:11.232Z,19.30
2017-04-27T04:18:11.395Z,19.30
2017-04-27T04:19:11.458Z,19.30
2017-04-27T04:20:12.929Z,19.30
2017-04-27T04:21:09.577Z,19.30
2017-04-27T04:22:11.366Z,19.30
2017-04-27T04:23:12.221Z,19.30
2017-04-27T04:24:09.508Z,19.30
2017-04-27T04:25:16.610Z,19.30
2017-04-27T04:26:11.803Z,19.30
2017-04-27T04:27:12.087Z,19.30
2017-04-27T04:28:12.874Z,19.30
2017-04-27T04:29:11.868Z,19.30
2017-04-27T04:30:12.717Z,19.30
2017-04-27T04:31:12.283Z,19.30
2017-04-27T04:32:12.292Z,19.30
2017-04-27T04:33:12.047Z,19.30
2017-04-27T04:34:12.934Z,19.30
2017-04-27T04:35:12.267Z,19.30
2017-04-27T04:36:11.755Z,19.30
2017-04-27T04:37:12.456Z,19.30
2017-04-27T04:38:11.509Z,19.30
2017-04-27T04:39:12.075Z,19.30
2017-04-27T04:40:12.084Z,19.30
2017-04-27T04:41:12.883Z,19.30
2017-04-27T04:42:13.759Z,19.30
2017-04-27T04:43:11.664Z,19.20
2017-04-27T04:44:13.562Z,19.20
2017-04-27T04:45:09.969Z,19.30
2017-04-27T04:46:11.432Z,19.30
2017-04-27T04:47:09.725Z,19.30
2017-04-27T04:48:14.111Z,19.30
2017-04-27T04:49:08.920Z,19.30
2017-04-27T04:50:11.521Z,19.20
2017-04-27T04:51:12.935Z,19.30
2017-04-27T04:52:09.565Z,19.30
2017-04-27T04:53:13.325Z,19.30
2017-04-27T04:54:11.847Z,19.30
2017-04-27T04:55:14.660Z,19.30
2017-04-27T04:56:11.581Z,19.20
2017-04-27T04:57:13.500Z,19.30
2017-04-27T04:58:11.657Z,19.30
2017-04-27T04:59:12.659Z,19.30
2017-04-27T05:00:13.541Z,19.20
2017-04-27T05:01:13.001Z,19.30
2017-04-27T05:02:11.717Z,19.20
2017-04-27T05:03:11.832Z,19.20
2017-04-27T05:04:12.025Z,19.20
2017-04-27T05:05:11.097Z,19.20
2017-04-27T05:06:11.810Z,19.20
2017-04-27T05:07:12.704Z,19.30
2017-04-27T05:08:11.671Z,19.20
2017-04-27T05:09:12.293Z,19.20
2017-04-27T05:10:12.026Z,19.20
2017-04-27T05:11:11.962Z,19.20
2017-04-27T05:12:12.047Z,19.20
2017-04-27T05:13:11.177Z,19.20
2017-04-27T05:14:12.245Z,19.20
2017-04-27T05:15:12.052Z,19.20
2017-04-27T05:16:11.109Z,19.20
2017-04-27T05:17:11.842Z,19.20
2017-04-27T05:18:12.894Z,19.20
2017-04-27T05:19:13.773Z,19.20
2017-04-27T05:20:12.686Z,19.20
2017-04-27T05:21:12.322Z,19.20
2017-04-27T05:22:11.994Z,19.20
2017-04-27T05:23:11.120Z,19.20
2017-04-27T05:24:12.900Z,19.20
2017-04-27T05:25:12.895Z,19.20
2017-04-27T05:26:12.578Z,19.20
2017-04-27T05:27:13.255Z,19.20
2017-04-27T05:28:11.236Z,19.20
2017-04-27T05:29:09.936Z,19.20
2017-04-27T05:30:12.278Z,19.20
2017-04-27T05:31:11.852Z,19.20
2017-04-27T05:32:12.060Z,19.20
2017-04-27T05:33:12.191Z,19.30
2017-04-27T05:34:11.815Z,19.30
2017-04-27T05:35:12.490Z,19.30
2017-04-27T05:36:12.017Z,19.30
2017-04-27T05:37:12.847Z,19.20
2017-04-27T05:38:12.214Z,19.30
2017-04-27T05:39:13.014Z,19.20
2017-04-27T05:40:11.729Z,19.20
2017-04-27T05:41:12.701Z,19.20
2017-04-27T05:42:12.416Z,19.20
2017-04-27T05:43:11.550Z,19.20
2017-04-27T05:44:10.053Z,19.30
2017-04-27T05:45:10.060Z,19.30
2017-04-27T05:46:14.200Z,19.20
2017-04-27T05:47:13.032Z,19.30
2017-04-27T05:48:11.414Z,19.30
2017-04-27T05:49:11.564Z,19.30
2017-04-27T05:50:12.266Z,19.30
2017-04-27T05:51:11.995Z,19.30
2017-04-27T05:52:12.902Z,19.30
2017-04-27T05:53:12.135Z,19.30
2017-04-27T05:54:09.809Z,19.30
2017-04-27T05:55:13.031Z,19.30
2017-04-27T05:56:12.005Z,19.30
2017-04-27T05:57:13.794Z,19.30
2017-04-27T05:58:12.487Z,19.30
2017-04-27T05:59:12.527Z,19.30
2017-04-27T06:00:13.402Z,19.20
2017-04-27T06:01:13.111Z,19.20
2017-04-27T06:02:11.637Z,19.20
2017-04-27T06:03:11.749Z,19.30
2017-04-27T06:04:13.656Z,19.20
2017-04-27T06:05:10.086Z,19.30
2017-04-27T06:06:11.677Z,19.20
2017-04-27T06:07:11.811Z,19.30
2017-04-27T06:08:12.545Z,19.30
2017-04-27T06:09:12.034Z,19.30
2017-04-27T06:10:11.194Z,19.20
2017-04-27T06:11:11.700Z,19.20
2017-04-27T06:12:12.727Z,19.30
2017-04-27T06:13:11.617Z,19.20
2017-04-27T06:14:11.684Z,19.20
2017-04-27T06:15:10.204Z,19.30
2017-04-27T06:16:12.819Z,19.30
2017-04-27T06:17:10.112Z,19.30
2017-04-27T06:18:13.377Z,19.30
2017-04-27T06:19:09.921Z,19.30
2017-04-27T06:20:12.193Z,19.30
2017-04-27T06:21:08.321Z,19.30
2017-04-27T06:22:12.531Z,19.20
2017-04-27T06:23:13.249Z,19.30
2017-04-27T06:24:14.032Z,19.30
2017-04-27T06:25:14.183Z,19.30
2017-04-27T06:26:12.063Z,19.20
2017-04-27T06:27:11.259Z,19.20
2017-04-27T06:28:12.086Z,19.20
2017-04-27T06:29:11.930Z,19.20
2017-04-27T06:30:12.908Z,19.30
2017-04-27T06:31:12.814Z,19.20
2017-04-27T06:32:11.117Z,19.20
2017-04-27T06:33:09.043Z,19.20
2017-04-27T06:34:11.481Z,19.20
2017-04-27T06:35:12.433Z,19.20
2017-04-27T06:36:13.308Z,19.20
2017-04-27T06:37:11.771Z,19.20
2017-04-27T06:38:13.046Z,19.20
2017-04-27T06:39:12.942Z,19.20
2017-04-27T06:40:12.946Z,19.20
2017-04-27T06:41:12.077Z,19.20
2017-04-27T06:42:11.933Z,19.30
2017-04-27T06:43:11.231Z,19.30
2017-04-27T06:44:11.288Z,19.20
2017-04-27T06:45:11.416Z,19.20
2017-04-27T06:46:12.218Z,19.30
2017-04-27T06:47:11.366Z,19.20
2017-04-27T06:48:12.143Z,19.30
2017-04-27T06:49:10.056Z,19.30
2017-04-27T06:50:11.539Z,19.30
2017-04-27T06:51:10.259Z,19.30
2017-04-27T06:52:12.811Z,19.30
2017-04-27T06:53:11.797Z,19.30
2017-04-27T06:54:11.986Z,19.30
2017-04-27T06:55:11.178Z,19.30
2017-04-27T06:56:11.246Z,19.30
2017-04-27T06:57:11.474Z,19.30
2017-04-27T06:58:13.154Z,19.30
2017-04-27T06:59:11.312Z,19.20
2017-04-27T07:00:11.986Z,19.30
2017-04-27T07:01:11.829Z,19.30
2017-04-27T07:02:11.869Z,19.20
2017-04-27T07:03:12.860Z,19.20
2017-04-27T07:04:12.695Z,19.20
2017-04-27T07:05:11.875Z,19.20
2017-04-27T07:06:11.700Z,19.20
2017-04-27T07:07:12.900Z,19.20
2017-04-27T07:08:12.490Z,19.20
2017-04-27T07:09:11.756Z,19.20
2017-04-27T07:10:13.405Z,19.20
2017-04-27T07:11:12.145Z,19.20
2017-04-27T07:12:09.690Z,19.20
2017-04-27T07:13:11.558Z,19.20
2017-04-27T07:14:11.517Z,19.20
2017-04-27T07:15:13.413Z,19.20
2017-04-27T07:16:11.425Z,19.20
2017-04-27T07:17:09.507Z,19.20
2017-04-27T07:18:11.250Z,19.20
2017-04-27T07:19:11.510Z,19.20
2017-04-27T07:20:11.619Z,19.20
2017-04-27T07:21:12.284Z,19.20
2017-04-27T07:22:13.207Z,19.20
2017-04-27T07:23:11.789Z,19.20
2017-04-27T07:24:13.014Z,19.20
2017-04-27T07:25:11.494Z,19.20
2017-04-27T07:26:12.274Z,19.20
2017-04-27T07:27:11.197Z,19.20
2017-04-27T07:28:11.241Z,19.20
2017-04-27T07:29:12.230Z,19.20
2017-04-27T07:30:11.403Z,19.20
2017-04-27T07:31:10.141Z,19.20
2017-04-27T07:32:09.643Z,19.20
2017-04-27T07:33:11.110Z,19.20
2017-04-27T07:34:12.936Z,19.30
2017-04-27T07:35:11.945Z,19.20
2017-04-27T07:36:11.719Z,19.20
2017-04-27T07:37:11.793Z,18.70
2017-04-27T07:38:11.948Z,18.30
2017-04-27T07:39:11.673Z,17.80
2017-04-27T07:40:12.699Z,17.50
2017-04-27T07:41:11.749Z,17.20
2017-04-27T07:42:11.900Z,16.90
2017-04-27T07:43:13.209Z,16.70
2017-04-27T07:44:11.881Z,16.50
2017-04-27T07:45:12.705Z,16.30
2017-04-27T07:46:11.853Z,16.10
2017-04-27T07:47:11.018Z,16.00
2017-04-27T07:48:11.618Z,15.90
2017-04-27T07:49:12.572Z,15.80
2017-04-27T07:50:11.489Z,15.60
2017-04-27T07:51:12.798Z,15.50
2017-04-27T07:52:13.512Z,15.00
2017-04-27T07:53:12.095Z,15.10
2017-04-27T07:54:11.653Z,15.30
2017-04-27T07:55:12.823Z,15.50
2017-04-27T07:56:13.519Z,15.80
2017-04-27T07:57:12.375Z,16.00
2017-04-27T07:58:11.477Z,16.20
2017-04-27T07:59:11.504Z,16.40
2017-04-27T08:00:11.467Z,16.60
2017-04-27T08:01:12.272Z,16.80
2017-04-27T08:02:11.879Z,16.90
2017-04-27T08:03:12.137Z,17.10
2017-04-27T08:04:11.113Z,17.20
2017-04-27T08:05:12.368Z,17.30
2017-04-27T08:06:13.003Z,17.30
2017-04-27T08:07:12.627Z,17.40
2017-04-27T08:08:12.638Z,17.50
2017-04-27T08:09:12.176Z,17.60
2017-04-27T08:10:11.648Z,17.70
2017-04-27T08:11:11.581Z,17.70
2017-04-27T08:12:12.153Z,17.80
2017-04-27T08:13:11.244Z,17.90
2017-04-27T08:14:11.892Z,18.00
2017-04-27T08:15:12.513Z,18.00
2017-04-27T08:16:11.618Z,18.10
2017-04-27T08:17:13.703Z,18.10
2017-04-27T08:18:13.461Z,18.20
2017-04-27T08:19:14.408Z,18.20
2017-04-27T08:20:12.424Z,18.20
2017-04-27T08:21:09.364Z,18.30
2017-04-27T08:22:11.715Z,18.30
2017-04-27T08:23:11.866Z,18.30
2017-04-27T08:24:12.200Z,18.30
2017-04-27T08:25:11.274Z,18.40
2017-04-27T08:26:09.320Z,18.40
2017-04-27T08:27:12.872Z,18.40
2017-04-27T08:28:12.028Z,18.50
2017-04-27T08:29:09.736Z,18.50
2017-04-27T08:30:11.568Z,18.50
2017-04-27T08:31:13.332Z,18.50
2017-04-27T08:32:11.497Z,18.50
2017-04-27T08:33:14.275Z,18.60
2017-04-27T08:34:11.399Z,18.60
2017-04-27T08:35:14.939Z,18.60
2017-04-27T08:36:11.919Z,18.60
2017-04-27T08:37:12.746Z,18.60
2017-04-27T08:38:13.464Z,18.60
2017-04-27T08:39:12.155Z,18.70
2017-04-27T08:40:11.133Z,18.60
2017-04-27T08:41:11.182Z,18.60
2017-04-27T08:42:13.142Z,18.60
2017-04-27T08:43:12.939Z,18.60
2017-04-27T08:44:12.081Z,18.60
2017-04-27T08:45:12.022Z,18.60
2017-04-27T08:46:10.991Z,18.60
2017-04-27T08:47:12.911Z,18.60
2017-04-27T08:48:12.084Z,18.60
2017-04-27T08:49:11.152Z,18.60
2017-04-27T08:50:11.171Z,18.60
2017-04-27T08:51:13.152Z,18.60
2017-04-27T08:52:11.095Z,18.60
2017-04-27T08:53:13.830Z,18.70
2017-04-27T08:54:11.162Z,18.70
2017-04-27T08:55:12.153Z,18.70
2017-04-27T08:56:11.804Z,18.70
2017-04-27T08:57:12.724Z,18.70
2017-04-27T08:58:11.829Z,18.70
2017-04-27T08:59:12.362Z,18.70
2017-04-27T09:00:11.381Z,18.70
2017-04-27T09:01:13.509Z,18.70
2017-04-27T09:02:13.293Z,18.70
2017-04-27T09:03:12.975Z,18.70
2017-04-27T09:04:11.957Z,18.70
2017-04-27T09:05:11.221Z,18.70
2017-04-27T09:06:12.007Z,18.70
2017-04-27T09:07:11.146Z,18.70
2017-04-27T09:08:11.671Z,18.70
2017-04-27T09:09:13.465Z,18.70
2017-04-27T09:10:11.506Z,18.70
2017-04-27T09:11:11.592Z,18.70
2017-04-27T09:12:12.246Z,18.70
2017-04-27T09:13:11.352Z,18.70
2017-04-27T09:14:11.435Z,18.70
2017-04-27T09:15:11.722Z,18.70
2017-04-27T09:16:12.108Z,18.70
2017-04-27T09:17:11.441Z,18.70
2017-04-27T09:18:14.110Z,18.70
2017-04-27T09:19:11.089Z,18.70
2017-04-27T09:20:12.158Z,18.70
2017-04-27T09:21:12.291Z,18.70
2017-04-27T09:22:11.752Z,18.70
2017-04-27T09:23:11.941Z,18.70
2017-04-27T09:24:12.532Z,18.70
2017-04-27T09:25:11.542Z,18.70
2017-04-27T09:26:12.481Z,18.70
2017-04-27T09:27:13.319Z,18.70
2017-04-27T09:28:12.064Z,18.70
2017-04-27T09:29:11.106Z,18.70
2017-04-27T09:30:11.274Z,18.70
2017-04-27T09:31:11.383Z,18.70
2017-04-27T09:32:11.759Z,18.70
2017-04-27T09:33:12.788Z,18.70
2017-04-27T09:34:11.796Z,18.70
2017-04-27T09:35:11.936Z,18.70
2017-04-27T09:36:12.182Z,18.70
2017-04-27T09:37:12.087Z,18.60
2017-04-27T09:38:09.990Z,18.60
2017-04-27T09:39:12.113Z,18.60
2017-04-27T09:40:11.983Z,18.60
2017-04-27T09:41:11.663Z,18.60
2017-04-27T09:42:12.623Z,18.60
2017-04-27T09:43:12.412Z,18.70
2017-04-27T09:44:11.471Z,18.70
2017-04-27T09:45:11.544Z,18.70
2017-04-27T09:46:12.315Z,18.70
2017-04-27T09:47:11.871Z,18.80
2017-04-27T09:48:12.464Z,18.80
2017-04-27T09:49:12.045Z,18.90
2017-04-27T09:50:13.647Z,18.90
2017-04-27T09:51:12.333Z,18.90
2017-04-27T09:52:11.437Z,18.90
2017-04-27T09:53:12.076Z,19.00
2017-04-27T09:54:11.134Z,19.00
2017-04-27T09:55:11.116Z,19.00
2017-04-27T09:56:13.063Z,19.00
2017-04-27T09:57:11.695Z,19.10
2017-04-27T09:58:11.767Z,19.10
2017-04-27T09:59:11.977Z,19.10
2017-04-27T10:00:11.154Z,19.10
2017-04-27T10:01:11.733Z,19.10
2017-04-27T10:02:11.971Z,19.20
2017-04-27T10:03:13.466Z,19.20
2017-04-27T10:04:14.134Z,19.20
2017-04-27T10:05:13.595Z,19.20
2017-04-27T10:06:11.502Z,19.20
2017-04-27T10:07:10.197Z,19.30
2017-04-27T10:08:12.926Z,19.30
2017-04-27T10:09:12.107Z,19.30
2017-04-27T10:10:12.060Z,19.40
2017-04-27T10:11:11.783Z,19.40
2017-04-27T10:12:12.005Z,19.40
2017-04-27T10:13:11.839Z,19.50
2017-04-27T10:14:12.575Z,19.50
2017-04-27T10:15:12.365Z,19.50
2017-04-27T10:16:12.390Z,19.50
2017-04-27T10:17:11.534Z,19.50
2017-04-27T10:18:13.352Z,19.50
2017-04-27T10:19:11.446Z,19.60
2017-04-27T10:20:15.342Z,19.70
2017-04-27T10:21:11.576Z,19.70
2017-04-27T10:22:12.024Z,19.70
2017-04-27T10:23:11.124Z,19.70
2017-04-27T10:24:11.340Z,19.70
2017-04-27T10:25:12.362Z,19.70
2017-04-27T10:26:14.879Z,19.70
2017-04-27T10:27:12.513Z,19.70
2017-04-27T10:28:11.528Z,19.70
2017-04-27T10:29:11.589Z,19.70
2017-04-27T10:30:12.325Z,19.60
2017-04-27T10:31:11.377Z,19.70
2017-04-27T10:32:11.979Z,19.70
2017-04-27T10:33:11.667Z,19.70
2017-04-27T10:34:12.858Z,19.70
2017-04-27T10:35:11.682Z,19.70
2017-04-27T10:36:12.549Z,19.70
2017-04-27T10:37:12.585Z,19.80
2017-04-27T10:38:12.123Z,19.80
2017-04-27T10:39:12.876Z,19.80
2017-04-27T10:40:12.045Z,19.80
2017-04-27T10:41:11.211Z,19.80
2017-04-27T10:42:09.966Z,19.80
2017-04-27T10:43:12.275Z,19.80
2017-04-27T10:44:12.312Z,19.80
2017-04-27T10:45:12.608Z,19.80
2017-04-27T10:46:11.533Z,19.80
2017-04-27T10:47:12.110Z,19.80
2017-04-27T10:48:13.330Z,19.80
2017-04-27T10:49:11.924Z,19.80
2017-04-27T10:50:12.646Z,19.80
2017-04-27T10:51:11.822Z,19.80
2017-04-27T10:52:12.746Z,19.80
2017-04-27T10:53:12.566Z,19.90
2017-04-27T10:54:11.839Z,19.90
2017-04-27T10:55:12.071Z,19.90
2017-04-27T10:56:12.069Z,19.90
2017-04-27T10:57:11.641Z,19.90
2017-04-27T10:58:12.779Z,19.90
2017-04-27T10:59:12.289Z,19.90
2017-04-27T11:00:08.631Z,19.90
2017-04-27T11:01:12.899Z,19.90
2017-04-27T11:02:12.671Z,20.00
2017-04-27T11:03:11.770Z,20.00
2017-04-27T11:04:12.742Z,20.00
2017-04-27T11:05:13.272Z,20.00
2017-04-27T11:06:11.554Z,20.00
2017-04-27T11:07:11.740Z,20.10
2017-04-27T11:08:12.500Z,20.10
2017-04-27T11:09:11.462Z,20.10
2017-04-27T11:10:12.311Z,20.10
2017-04-27T11:11:11.485Z,20.10
2017-04-27T11:12:10.107Z,20.10
2017-04-27T11:13:12.002Z,20.10
2017-04-27T11:14:12.913Z,20.10
2017-04-27T11:15:13.169Z,20.10
2017-04-27T11:16:12.562Z,20.10
2017-04-27T11:17:11.745Z,20.10
2017-04-27T11:18:11.939Z,20.10
2017-04-27T11:19:12.844Z,20.10
2017-04-27T11:20:12.878Z,20.10
2017-04-27T11:21:11.793Z,20.10
2017-04-27T11:22:11.941Z,20.10
2017-04-27T11:23:12.698Z,20.10
2017-04-27T11:24:13.464Z,20.10
2017-04-27T11:25:08.830Z,20.10
2017-04-27T11:26:11.404Z,20.10
2017-04-27T11:27:12.852Z,20.10
2017-04-27T11:28:14.098Z,20.10
2017-04-27T11:29:13.534Z,20.10
2017-04-27T11:30:12.035Z,20.10
2017-04-27T11:31:11.180Z,20.00
2017-04-27T11:32:11.504Z,20.00
2017-04-27T11:33:11.562Z,20.00
2017-04-27T11:34:11.585Z,20.00
2017-04-27T11:35:12.605Z,19.90
2017-04-27T11:36:12.799Z,19.90
2017-04-27T11:37:12.766Z,19.90
2017-04-27T11:38:12.608Z,19.90
2017-04-27T11:39:10.087Z,19.90
2017-04-27T11:40:11.685Z,19.80
2017-04-27T11:41:12.631Z,19.80
2017-04-27T11:42:08.948Z,19.80
2017-04-27T11:43:13.653Z,19.80
2017-04-27T11:44:13.210Z,19.70
2017-04-27T11:45:12.067Z,19.70
2017-04-27T11:46:11.543Z,19.70
2017-04-27T11:47:12.323Z,19.70
2017-04-27T11:48:12.880Z,19.60
2017-04-27T11:49:14.935Z,19.60
2017-04-27T11:50:13.642Z,19.60
2017-04-27T11:51:14.464Z,19.60
2017-04-27T11:52:12.068Z,19.60
2017-04-27T11:53:12.271Z,19.60
2017-04-27T11:54:12.028Z,19.60
2017-04-27T11:55:11.684Z,19.50
2017-04-27T11:56:09.729Z,19.60
2017-04-27T11:57:13.395Z,19.50
2017-04-27T11:58:11.726Z,19.50
2017-04-27T11:59:13.043Z,19.50
2017-04-27T12:00:12.252Z,19.50
2017-04-27T12:01:11.970Z,19.50
2017-04-27T12:02:11.753Z,19.50
2017-04-27T12:03:10.116Z,19.50
2017-04-27T12:04:13.211Z,19.50
2017-04-27T12:05:12.482Z,19.50
2017-04-27T12:06:13.120Z,19.40
2017-04-27T12:07:11.869Z,19.40
2017-04-27T12:08:11.958Z,19.40
2017-04-27T12:09:11.769Z,19.40
2017-04-27T12:10:11.492Z,19.40
2017-04-27T12:11:12.849Z,19.40
2017-04-27T12:12:11.951Z,19.40
2017-04-27T12:13:12.324Z,19.40
2017-04-27T12:14:12.065Z,19.40
2017-04-27T12:15:12.529Z,19.40
2017-04-27T12:16:11.557Z,19.40
2017-04-27T12:17:12.985Z,19.40
2017-04-27T12:18:12.913Z,19.40
2017-04-27T12:19:12.861Z,19.40
2017-04-27T12:20:11.382Z,19.40
2017-04-27T12:21:12.327Z,19.40
2017-04-27T12:22:11.825Z,19.40
2017-04-27T12:23:10.309Z,19.40
2017-04-27T12:24:11.936Z,19.40
2017-04-27T12:25:11.760Z,19.40
2017-04-27T12:26:14.064Z,19.40
2017-04-27T12:27:12.039Z,19.40
2017-04-27T12:28:11.260Z,19.40
2017-04-27T12:29:11.428Z,19.40
2017-04-27T12:30:12.174Z,19.40
2017-04-27T12:31:11.858Z,19.30
2017-04-27T12:32:11.968Z,19.40
2017-04-27T12:33:13.981Z,19.30
2017-04-27T12:34:11.071Z,19.40
2017-04-27T12:35:11.808Z,19.30
2017-04-27T12:36:11.113Z,19.30
2017-04-27T12:37:09.616Z,19.30
2017-04-27T12:38:12.496Z,19.30
2017-04-27T12:39:12.495Z,19.30
2017-04-27T12:40:12.481Z,19.30
2017-04-27T12:41:12.170Z,19.30
2017-04-27T12:42:11.856Z,19.30
2017-04-27T12:43:12.644Z,19.30
2017-04-27T12:44:13.439Z,19.30
2017-04-27T12:45:12.333Z,19.30
2017-04-27T12:46:09.138Z,19.30
2017-04-27T12:47:11.433Z,19.30
2017-04-27T12:48:11.660Z,19.30
2017-04-27T12:49:12.833Z,19.30
2017-04-27T12:50:09.643Z,19.30
2017-04-27T12:51:12.196Z,19.30
2017-04-27T12:52:12.806Z,19.30